EGNM/LBA METAR and TAF weather

Enter ICAO airport designator
Station Type Date Time Source
EGNM METAR 2020/04/06 09:50 UTC NOAA

EGNM 060950Z 23012G22KT 9999 SCT043 11/05 Q1012


Station Type Date Time Source
EGNM Decoded METAR 2020/04/06 09:50 UTC NOAA

Leeds And Bradford, United Kingdom (EGNM) 53-52N 001-39W
Apr 06, 2020 - 05:50 AM EDT / 2020.04.06 0950 UTC
Wind: from the SW (230 degrees) at 14 MPH (12 KT) gusting to 25 MPH (22 KT):0
Visibility: greater than 7 mile(s):0
Sky conditions: partly cloudy
Temperature: 51 F (11 C)
Dew Point: 41 F (5 C)
Relative Humidity: 66%
Pressure (altimeter): 29.88 in. Hg (1012 hPa)
ob: EGNM 060950Z 23012G22KT 9999 SCT043 11/05 Q1012
cycle: 10

Station Type Date Time Source
EGNM TAF 2020/04/06 08:00 UTC NOAA

TAF EGNM 060755Z 0608/0616 23012KT 9999 FEW025 PROB30
TEMPO 0608/0615 8000 -SHRA

Example: see airport list